Time;durP1;ratioP1;P1;durP2;ratioP2;P2;SDS_P1;SDS_P2;PMS_P1;PMS_P2;Temp;Humidity;BMP_temperature;BMP_pressure;BME280_temperature;BME280_humidity;BME280_pressure;Samples;Min_cycle;Max_cycle;Signal;HPM_P1;HPM_P2
2022/05/22 00:01:41;;;;;;;9.32;3.13;;;15.80;99.90;;;;;;5052303;28;20194;-82
2022/05/22 00:04:08;;;;;;;9.15;3.45;;;15.70;99.90;;;;;;5034592;28;20221;-86
2022/05/22 00:06:34;;;;;;;7.85;2.67;;;15.80;99.90;;;;;;5034744;28;20234;-86
2022/05/22 00:09:00;;;;;;;8.48;2.90;;;15.70;99.90;;;;;;5052943;28;20218;-82
2022/05/22 00:11:26;;;;;;;11.18;3.05;;;15.80;99.90;;;;;;5035149;28;20258;-86
2022/05/22 00:13:52;;;;;;;8.07;3.35;;;15.60;99.90;;;;;;5052512;28;20167;-83
2022/05/22 00:19:25;;;;;;;7.22;2.80;;;15.40;99.90;;;;;;5043644;28;20547;-84
2022/05/22 00:21:51;;;;;;;12.85;4.18;;;15.40;99.90;;;;;;5052847;28;20308;-83
2022/05/22 00:24:19;;;;;;;7.03;3.50;;;15.40;99.90;;;;;;5053353;28;20178;-87
2022/05/22 00:26:46;;;;;;;5.25;2.58;;;15.50;99.90;;;;;;5052496;28;20222;-84
2022/05/22 00:29:12;;;;;;;16.20;3.25;;;15.60;99.90;;;;;;5052527;28;20163;-85
2022/05/22 00:31:38;;;;;;;16.55;2.85;;;15.10;99.90;;;;;;5052409;28;20163;-83
2022/05/22 00:34:04;;;;;;;15.73;2.75;;;14.80;99.90;;;;;;5052627;28;20170;-86
2022/05/22 00:36:30;;;;;;;8.13;2.63;;;14.80;99.90;;;;;;5052458;28;20159;-86
2022/05/22 00:38:55;;;;;;;17.83;3.47;;;14.90;99.90;;;;;;5052692;28;20171;-85
2022/05/22 00:41:21;;;;;;;8.60;3.50;;;15.10;99.90;;;;;;5034549;28;20171;-83
2022/05/22 00:43:52;;;;;;;4.80;2.78;;;15.20;99.90;;;;;;5052463;28;20619;-82
2022/05/22 00:46:20;;;;;;;5.55;2.80;;;15.20;99.90;;;;;;5051973;28;20252;-84
2022/05/22 00:48:53;;;;;;;7.72;2.47;;;15.10;99.90;;;;;;5034084;28;20624;-82
2022/05/22 00:51:20;;;;;;;7.40;3.17;;;15.00;99.90;;;;;;5034633;28;20527;-84
2022/05/22 00:53:54;;;;;;;9.82;2.30;;;15.00;99.90;;;;;;5034591;28;20262;-86
2022/05/22 00:56:24;;;;;;;9.73;3.13;;;14.80;99.90;;;;;;5053743;28;20657;-86
2022/05/22 00:58:53;;;;;;;8.95;3.65;;;14.90;99.90;;;;;;5038862;28;20206;-83
2022/05/22 01:01:19;;;;;;;9.27;3.35;;;15.00;99.90;;;;;;5038680;28;20167;-86
2022/05/22 01:03:45;;;;;;;15.68;3.90;;;15.00;99.90;;;;;;5056471;28;20256;-84
2022/05/22 01:06:16;;;;;;;10.20;3.22;;;14.80;99.90;;;;;;5056225;28;20202;-86
2022/05/22 01:08:43;;;;;;;8.80;3.13;;;14.70;99.90;;;;;;5038450;28;20282;-85
2022/05/22 01:11:20;;;;;;;11.45;3.25;;;14.80;99.90;;;;;;5056569;28;20198;-86
2022/05/22 01:14:09;;;;;;;6.72;2.97;;;14.80;99.90;;;;;;5038389;28;20170;-83
2022/05/22 01:16:35;;;;;;;9.60;3.20;;;14.90;99.90;;;;;;5056028;28;20155;-84
2022/05/22 01:19:08;;;;;;;11.15;3.15;;;14.90;99.90;;;;;;5037816;28;20186;-86
2022/05/22 01:21:34;;;;;;;8.95;2.92;;;14.70;99.90;;;;;;5055481;28;20160;-87
2022/05/22 01:23:59;;;;;;;14.48;3.38;;;14.70;99.90;;;;;;5055996;28;20643;-82
2022/05/22 01:26:27;;;;;;;6.75;2.80;;;14.80;99.90;;;;;;5037650;28;20211;-86
2022/05/22 01:28:53;;;;;;;6.38;3.60;;;14.70;99.90;;;;;;5055921;28;20214;-83
2022/05/22 01:31:19;;;;;;;11.60;3.20;;;14.60;99.90;;;;;;5056191;28;20639;-84
2022/05/22 01:33:44;;;;;;;9.35;2.45;;;14.40;99.90;;;;;;5055827;28;20224;-83
2022/05/22 01:36:11;;;;;;;17.98;2.70;;;14.30;99.90;;;;;;5055736;28;20172;-82
2022/05/22 01:38:37;;;;;;;6.93;2.72;;;14.40;99.90;;;;;;5055905;28;20655;-86
2022/05/22 01:41:04;;;;;;;5.22;2.83;;;14.50;99.90;;;;;;5055493;28;20654;-85
2022/05/22 01:43:30;;;;;;;4.13;2.90;;;14.70;99.90;;;;;;5055875;28;20519;-87
2022/05/22 01:45:56;;;;;;;5.72;2.95;;;14.70;99.90;;;;;;5037570;28;20253;-82
2022/05/22 01:48:23;;;;;;;10.00;2.88;;;14.70;99.90;;;;;;5037406;28;20647;-83
2022/05/22 01:50:49;;;;;;;23.58;3.70;;;14.50;99.90;;;;;;5038155;28;20175;-84
2022/05/22 01:53:15;;;;;;;10.23;2.95;;;14.50;99.90;;;;;;5055756;28;20246;-84
2022/05/22 01:55:41;;;;;;;4.53;2.78;;;14.60;99.90;;;;;;5055636;28;20163;-86
2022/05/22 01:58:07;;;;;;;6.72;2.97;;;14.40;99.90;;;;;;5037471;28;20191;-85
2022/05/22 02:00:34;;;;;;;8.90;2.70;;;14.60;99.90;;;;;;5037532;28;20392;-84
2022/05/22 02:03:00;;;;;;;9.05;3.25;;;14.50;99.90;;;;;;5055592;28;20172;-85
2022/05/22 02:05:26;;;;;;;8.45;2.97;;;14.40;99.90;;;;;;5055276;28;20168;-83
2022/05/22 02:10:37;;;;;;;6.60;3.75;;;14.30;99.90;;;;;;5055368;28;20210;-82
2022/05/22 02:13:03;;;;;;;6.30;3.25;;;14.40;99.90;;;;;;5037294;28;20709;-85
2022/05/22 02:15:29;;;;;;;9.60;2.65;;;14.40;99.90;;;;;;5055014;28;20155;-83
2022/05/22 02:17:55;;;;;;;8.15;2.80;;;14.30;99.90;;;;;;5054851;28;20289;-82
2022/05/22 02:20:22;;;;;;;7.15;2.50;;;14.40;99.90;;;;;;5037489;28;20660;-84
2022/05/22 02:22:53;;;;;;;15.27;3.22;;;14.20;99.90;;;;;;5055054;28;20195;-81
2022/05/22 02:25:22;;;;;;;11.52;3.47;;;14.10;99.90;;;;;;5055112;28;20174;-84
2022/05/22 02:27:48;;;;;;;12.35;2.90;;;14.20;99.90;;;;;;5054707;28;20693;-86
2022/05/22 02:30:18;;;;;;;5.30;2.40;;;14.30;99.90;;;;;;5037066;28;20159;-85
2022/05/22 02:32:44;;;;;;;11.85;3.10;;;14.40;99.90;;;;;;5054805;28;20163;-87
2022/05/22 02:35:12;;;;;;;11.13;3.17;;;14.40;99.90;;;;;;5054976;28;20531;-83
2022/05/22 02:37:45;;;;;;;2.92;2.33;;;14.50;99.90;;;;;;5054843;28;20635;-82
2022/05/22 02:40:12;;;;;;;10.35;3.00;;;14.50;99.90;;;;;;5037040;28;20206;-85
2022/05/22 02:42:39;;;;;;;11.02;3.25;;;14.20;99.90;;;;;;5054830;28;20195;-83
2022/05/22 02:45:06;;;;;;;9.65;3.00;;;14.20;99.90;;;;;;5054562;28;20232;-84
2022/05/22 02:47:33;;;;;;;5.65;2.75;;;14.10;99.90;;;;;;5036267;28;20485;-84
2022/05/22 02:49:58;;;;;;;4.50;2.75;;;14.00;99.90;;;;;;5036688;28;20221;-85
2022/05/22 02:52:24;;;;;;;9.18;2.85;;;14.00;99.90;;;;;;5054027;28;20171;-82
2022/05/22 02:54:50;;;;;;;7.07;3.63;;;14.10;99.90;;;;;;5054240;28;20642;-84
2022/05/22 02:57:21;;;;;;;7.22;3.47;;;14.20;99.90;;;;;;5054295;28;20282;-82
2022/05/22 02:59:47;;;;;;;12.88;3.38;;;14.30;99.90;;;;;;5054605;28;20156;-82
2022/05/22 03:02:13;;;;;;;8.23;3.22;;;14.20;99.90;;;;;;5054465;28;20171;-84
2022/05/22 03:04:39;;;;;;;14.43;3.67;;;14.30;99.90;;;;;;5055276;28;20240;-86
2022/05/22 03:07:05;;;;;;;10.10;3.33;;;14.20;99.90;;;;;;5054642;28;20206;-83
2022/05/22 03:09:31;;;;;;;10.02;4.28;;;14.20;99.90;;;;;;5036980;28;20168;-86
2022/05/22 03:11:57;;;;;;;4.25;3.50;;;14.20;99.90;;;;;;5055087;28;20520;-82
2022/05/22 03:14:23;;;;;;;9.90;4.45;;;14.20;99.90;;;;;;5037121;28;20198;-83
2022/05/22 03:16:49;;;;;;;14.45;4.28;;;14.30;99.90;;;;;;5054536;28;20179;-82
2022/05/22 03:19:15;;;;;;;13.15;4.03;;;14.20;99.90;;;;;;5035776;28;20170;-83
2022/05/22 03:21:44;;;;;;;8.32;3.47;;;14.30;99.90;;;;;;5036555;28;20640;-83
2022/05/22 03:24:10;;;;;;;13.63;4.40;;;14.30;99.90;;;;;;5054259;28;20171;-82
2022/05/22 03:26:35;;;;;;;4.38;3.25;;;14.20;99.90;;;;;;5035610;28;20214;-81
2022/05/22 03:29:01;;;;;;;9.30;3.85;;;14.10;99.90;;;;;;5053051;28;20163;-80
2022/05/22 03:31:27;;;;;;;7.47;3.92;;;14.10;99.90;;;;;;5053016;28;20224;-81
2022/05/22 03:33:52;;;;;;;10.30;3.53;;;14.20;99.90;;;;;;5053225;28;20500;-83
2022/05/22 03:36:18;;;;;;;13.65;3.80;;;14.20;99.90;;;;;;5053125;28;20175;-80
2022/05/22 03:38:44;;;;;;;4.50;3.22;;;14.20;99.90;;;;;;5052899;28;20187;-80
2022/05/22 03:41:09;;;;;;;6.07;3.30;;;14.20;99.90;;;;;;5035160;28;20175;-81
2022/05/22 03:43:35;;;;;;;12.57;3.35;;;14.20;99.90;;;;;;5053121;28;20163;-83
2022/05/22 03:46:00;;;;;;;5.43;3.05;;;14.20;99.90;;;;;;5035238;28;20163;-86
2022/05/22 03:48:26;;;;;;;4.53;2.97;;;14.30;99.90;;;;;;5034996;28;20237;-83
2022/05/22 03:50:52;;;;;;;12.23;3.85;;;14.10;99.90;;;;;;5034941;28;20225;-82
2022/05/22 03:53:17;;;;;;;9.10;4.55;;;14.10;99.90;;;;;;5035197;28;20530;-81
2022/05/22 03:55:43;;;;;;;10.35;3.22;;;14.10;99.90;;;;;;5035188;28;20173;-82
2022/05/22 03:58:10;;;;;;;6.63;4.35;;;14.10;99.90;;;;;;5035147;28;20191;-82
2022/05/22 04:00:36;;;;;;;7.10;3.65;;;14.10;99.90;;;;;;5053611;28;20210;-86
2022/05/22 04:03:01;;;;;;;7.97;3.90;;;14.10;99.90;;;;;;5053014;28;20186;-85
2022/05/22 04:05:27;;;;;;;11.93;4.35;;;13.90;99.90;;;;;;5053080;28;20167;-84
2022/05/22 04:07:53;;;;;;;3.67;3.38;;;13.80;99.90;;;;;;5035362;28;20297;-87
2022/05/22 04:10:19;;;;;;;6.20;4.20;;;14.00;99.90;;;;;;5035743;28;20179;-84
2022/05/22 04:12:45;;;;;;;6.32;2.97;;;14.00;99.90;;;;;;5035421;28;20201;-85
2022/05/22 04:15:14;;;;;;;9.98;4.07;;;14.10;99.90;;;;;;5035273;28;20178;-86
2022/05/22 04:17:40;;;;;;;7.57;3.78;;;14.10;99.90;;;;;;5052678;28;20183;-84
2022/05/22 04:20:07;;;;;;;8.38;3.67;;;14.10;99.90;;;;;;5052918;28;20190;-85
2022/05/22 04:22:33;;;;;;;5.72;3.50;;;14.20;99.90;;;;;;5035340;28;20167;-83
2022/05/22 04:25:11;;;;;;;10.57;3.67;;;14.20;99.90;;;;;;5053083;28;20174;-82
2022/05/22 04:27:41;;;;;;;5.78;3.97;;;14.40;99.90;;;;;;5034554;28;20218;-82
2022/05/22 04:30:10;;;;;;;12.48;3.72;;;14.50;99.90;;;;;;5034665;28;20540;-81
2022/05/22 04:32:35;;;;;;;12.65;3.63;;;14.50;99.90;;;;;;5040886;28;20167;-81
2022/05/22 04:35:01;;;;;;;6.65;3.42;;;14.60;99.90;;;;;;5059335;28;20166;-84
2022/05/22 04:37:27;;;;;;;12.60;3.25;;;14.80;99.90;;;;;;5059074;28;20186;-84
2022/05/22 04:39:53;;;;;;;9.70;3.55;;;15.10;99.90;;;;;;5041517;28;20178;-84
2022/05/22 04:42:18;;;;;;;6.80;3.60;;;15.00;99.90;;;;;;5059165;28;20167;-86
2022/05/22 04:44:44;;;;;;;5.18;3.40;;;15.10;99.90;;;;;;5041452;28;20167;-81
2022/05/22 04:47:10;;;;;;;9.48;4.20;;;15.10;99.90;;;;;;5040986;28;20245;-85
2022/05/22 04:49:36;;;;;;;9.77;3.63;;;15.20;99.90;;;;;;5059221;28;20624;-85
2022/05/22 04:52:02;;;;;;;11.10;3.97;;;15.30;99.90;;;;;;5059339;28;20179;-85
2022/05/22 04:54:27;;;;;;;6.60;3.88;;;15.50;99.90;;;;;;5041204;28;20266;-87
2022/05/22 04:56:54;;;;;;;20.73;4.50;;;15.50;99.90;;;;;;5040922;28;20201;-82
2022/05/22 04:59:20;;;;;;;20.02;4.97;;;15.50;99.90;;;;;;5041072;28;20174;-85
2022/05/22 05:01:45;;;;;;;9.48;4.75;;;15.60;99.90;;;;;;5058812;28;20167;-81
2022/05/22 05:04:14;;;;;;;17.55;4.78;;;15.70;99.90;;;;;;5041053;28;20178;-86
2022/05/22 05:06:39;;;;;;;15.57;4.10;;;15.70;99.90;;;;;;5058850;28;20631;-82
2022/05/22 05:09:05;;;;;;;20.65;5.47;;;15.80;99.90;;;;;;5041193;28;20204;-82
2022/05/22 05:11:31;;;;;;;7.53;4.60;;;15.90;99.90;;;;;;5041390;28;20218;-82
2022/05/22 05:13:57;;;;;;;9.50;4.05;;;16.00;99.90;;;;;;5059054;28;20187;-83
2022/05/22 05:16:22;;;;;;;12.25;4.60;;;16.10;99.90;;;;;;5040990;28;20178;-83
2022/05/22 05:18:48;;;;;;;4.47;3.25;;;16.40;99.90;;;;;;5041006;28;20182;-83
2022/05/22 05:21:17;;;;;;;33.58;5.03;;;16.70;99.90;;;;;;5058878;28;20171;-84
2022/05/22 05:23:43;;;;;;;9.63;4.70;;;16.90;99.90;;;;;;5059080;28;20254;-84
2022/05/22 05:26:10;;;;;;;7.93;3.85;;;16.80;99.90;;;;;;5059462;28;20268;-82
2022/05/22 05:28:36;;;;;;;11.40;4.72;;;16.80;99.90;;;;;;5058825;28;20191;-83
2022/05/22 05:31:03;;;;;;;15.00;4.80;;;16.90;99.90;;;;;;5059413;28;20163;-87
2022/05/22 05:33:32;;;;;;;5.97;4.32;;;16.60;99.90;;;;;;5041404;28;20175;-85
2022/05/22 05:35:58;;;;;;;14.05;4.72;;;16.80;99.90;;;;;;5041385;28;20170;-87
2022/05/22 05:38:23;;;;;;;14.50;5.05;;;16.90;99.90;;;;;;5040908;28;20586;-83
2022/05/22 05:40:49;;;;;;;10.68;4.82;;;16.90;99.90;;;;;;5059074;28;20190;-82
2022/05/22 05:43:16;;;;;;;15.63;4.93;;;17.00;99.90;;;;;;5055972;28;20163;-81
2022/05/22 05:45:43;;;;;;;13.43;5.15;;;17.10;99.90;;;;;;5037845;28;20301;-80
2022/05/22 05:48:09;;;;;;;12.10;4.68;;;17.20;99.90;;;;;;5055840;28;20225;-80
2022/05/22 05:50:35;;;;;;;6.43;4.38;;;17.40;99.90;;;;;;5037047;28;20206;-81
2022/05/22 05:53:01;;;;;;;17.15;5.80;;;17.40;99.90;;;;;;5054801;28;20190;-81
2022/05/22 05:55:28;;;;;;;13.57;4.80;;;17.40;99.90;;;;;;5054720;28;20163;-81
2022/05/22 05:57:54;;;;;;;11.35;5.20;;;17.40;99.90;;;;;;5054635;28;20199;-85
2022/05/22 06:00:23;;;;;;;10.48;4.30;;;17.50;99.90;;;;;;5056274;28;20164;-83
2022/05/22 06:02:49;;;;;;;12.65;4.88;;;17.50;99.90;;;;;;5055215;28;20171;-86
2022/05/22 06:05:15;;;;;;;10.35;4.50;;;17.40;99.90;;;;;;5055793;28;20620;-85
2022/05/22 06:07:41;;;;;;;8.75;4.53;;;17.50;99.90;;;;;;5055670;28;20218;-82
2022/05/22 06:10:09;;;;;;;7.20;3.63;;;17.40;99.90;;;;;;5056776;28;20598;-82
2022/05/22 06:12:35;;;;;;;13.20;4.25;;;17.50;99.90;;;;;;5056724;28;20210;-80
2022/05/22 06:15:01;;;;;;;7.93;2.97;;;17.60;99.90;;;;;;5056402;28;20163;-85
2022/05/22 06:17:31;;;;;;;13.45;3.50;;;17.70;99.90;;;;;;5055961;28;20617;-87
2022/05/22 06:19:57;;;;;;;9.57;3.30;;;17.90;99.90;;;;;;5055529;28;20199;-82
2022/05/22 06:22:26;;;;;;;4.15;3.25;;;17.80;99.90;;;;;;5040400;28;20178;-81
2022/05/22 06:24:52;;;;;;;6.40;2.65;;;18.00;99.90;;;;;;5060592;28;20527;-80
2022/05/22 06:27:18;;;;;;;8.23;3.20;;;17.90;99.90;;;;;;5060952;28;20211;-80
2022/05/22 06:29:44;;;;;;;8.30;2.78;;;17.90;99.90;;;;;;5043018;28;20228;-78
2022/05/22 06:32:15;;;;;;;8.88;3.22;;;18.00;99.90;;;;;;5060070;28;20167;-78
2022/05/22 06:34:41;;;;;;;9.35;3.33;;;18.10;99.90;;;;;;5059567;28;20171;-85
2022/05/22 06:37:10;;;;;;;10.48;2.95;;;18.00;99.90;;;;;;5042112;28;20564;-87
2022/05/22 06:39:52;;;;;;;14.88;3.33;;;17.90;99.90;;;;;;5057046;28;20171;-80
2022/05/22 06:42:24;;;;;;;7.07;3.30;;;17.80;99.90;;;;;;5058656;28;20258;-80
2022/05/22 06:44:51;;;;;;;8.27;3.35;;;18.00;99.90;;;;;;5060579;28;20179;-77
2022/05/22 06:47:17;;;;;;;5.40;2.90;;;18.00;99.90;;;;;;5059733;28;20673;-84
2022/05/22 06:49:43;;;;;;;3.55;2.22;;;18.20;99.90;;;;;;5055110;28;20175;-84
2022/05/22 06:52:09;;;;;;;7.10;2.92;;;18.10;99.90;;;;;;5055049;28;20174;-83
2022/05/22 06:54:35;;;;;;;8.10;2.50;;;18.10;99.90;;;;;;5054447;28;20229;-83
2022/05/22 06:57:00;;;;;;;3.85;2.08;;;18.20;99.90;;;;;;5054204;28;20651;-81
2022/05/22 06:59:26;;;;;;;11.55;3.05;;;18.20;99.90;;;;;;5036171;28;20203;-84
2022/05/22 07:01:53;;;;;;;11.15;2.78;;;18.40;99.90;;;;;;5054283;28;20225;-83
2022/05/22 07:04:21;;;;;;;11.73;3.10;;;18.40;99.90;;;;;;5036138;28;20179;-81
2022/05/22 07:06:47;;;;;;;13.98;2.80;;;18.50;99.90;;;;;;5053708;28;20253;-82
2022/05/22 07:09:13;;;;;;;6.45;2.38;;;18.70;99.90;;;;;;5053936;28;20215;-82
2022/05/22 07:11:39;;;;;;;14.48;3.05;;;18.80;99.90;;;;;;5053585;28;20206;-82
2022/05/22 07:14:09;;;;;;;10.85;2.78;;;19.40;99.90;;;;;;5053422;28;20213;-82
2022/05/22 07:16:37;;;;;;;7.85;3.60;;;19.60;99.90;;;;;;5035730;28;20246;-85
2022/05/22 07:19:04;;;;;;;8.13;3.13;;;20.30;99.90;;;;;;5035655;28;20404;-82
2022/05/22 07:21:30;;;;;;;5.65;1.88;;;21.00;99.90;;;;;;5053625;28;20182;-86
2022/05/22 07:23:55;;;;;;;9.65;2.35;;;21.90;99.90;;;;;;5035847;28;20159;-82
2022/05/22 07:26:22;;;;;;;5.40;2.15;;;22.60;99.90;;;;;;5035723;28;20557;-83
2022/05/22 07:28:48;;;;;;;4.97;2.50;;;23.40;99.90;;;;;;5035432;28;20258;-83
2022/05/22 07:31:19;;;;;;;11.63;2.58;;;22.70;99.90;;;;;;5053665;28;20634;-83
2022/05/22 07:33:45;;;;;;;9.18;2.47;;;23.40;99.90;;;;;;5035354;28;20252;-85
2022/05/22 07:36:11;;;;;;;7.57;2.70;;;23.40;99.90;;;;;;5035296;28;20160;-82
2022/05/22 07:38:37;;;;;;;8.95;3.38;;;23.20;99.90;;;;;;5053243;28;20588;-82
2022/05/22 07:43:28;;;;;;;11.32;2.85;;;23.50;99.90;;;;;;5052519;28;20552;-85
2022/05/22 07:45:54;;;;;;;12.18;2.30;;;22.90;99.90;;;;;;5052898;28;20635;-83
2022/05/22 07:48:20;;;;;;;4.25;2.47;;;21.90;99.90;;;;;;5034490;28;20572;-82
2022/05/22 07:50:46;;;;;;;4.82;2.78;;;21.80;99.90;;;;;;5050969;28;20159;-83
2022/05/22 07:53:12;;;;;;;12.90;3.45;;;21.50;99.90;;;;;;5033859;28;20171;-84
2022/05/22 07:55:39;;;;;;;10.63;3.33;;;21.00;99.90;;;;;;5053132;28;20172;-83
2022/05/22 07:58:05;;;;;;;10.00;3.22;;;20.60;99.90;;;;;;5034588;28;20249;-84
2022/05/22 08:00:30;;;;;;;11.57;2.85;;;20.50;99.90;;;;;;5034924;28;20170;-84
2022/05/22 08:02:56;;;;;;;9.45;2.97;;;20.70;99.90;;;;;;5035072;28;20643;-82
2022/05/22 08:05:22;;;;;;;8.57;3.17;;;20.90;99.90;;;;;;5034526;28;20183;-82
2022/05/22 08:07:47;;;;;;;9.38;3.58;;;20.80;99.90;;;;;;5034660;28;20217;-83
2022/05/22 08:10:15;;;;;;;12.73;3.42;;;20.60;99.90;;;;;;5052994;28;20182;-83
2022/05/22 08:12:44;;;;;;;8.13;3.17;;;20.60;99.90;;;;;;5052609;28;20155;-83
2022/05/22 08:15:12;;;;;;;15.30;2.97;;;20.70;99.90;;;;;;5034771;28;20201;-82
2022/05/22 08:17:38;;;;;;;9.95;3.47;;;20.90;99.90;;;;;;5052203;28;20194;-83
2022/05/22 08:20:09;;;;;;;16.92;3.78;;;21.10;99.90;;;;;;5034392;28;20171;-82
2022/05/22 08:22:35;;;;;;;12.45;2.97;;;20.90;99.90;;;;;;5052170;28;20167;-82
2022/05/22 08:25:02;;;;;;;13.25;3.38;;;20.90;99.90;;;;;;5034585;28;20178;-83
2022/05/22 08:27:28;;;;;;;5.68;3.20;;;20.90;99.90;;;;;;5052230;28;20211;-82
2022/05/22 08:29:55;;;;;;;11.18;3.10;;;20.90;99.90;;;;;;5034423;28;20175;-82
2022/05/22 08:32:20;;;;;;;7.15;2.88;;;20.80;99.90;;;;;;5052307;28;20177;-83
2022/05/22 08:34:46;;;;;;;11.05;3.03;;;21.10;99.90;;;;;;5052166;28;20163;-82
2022/05/22 08:37:12;;;;;;;10.82;2.85;;;21.10;99.90;;;;;;5052015;28;20589;-84
2022/05/22 08:39:37;;;;;;;6.40;2.88;;;21.20;99.90;;;;;;5034915;28;20600;-84
2022/05/22 08:42:09;;;;;;;13.45;2.75;;;21.30;99.90;;;;;;5052571;28;20270;-85
2022/05/22 08:44:35;;;;;;;9.68;3.13;;;21.50;99.90;;;;;;5052733;28;20182;-84
2022/05/22 08:47:04;;;;;;;8.55;2.53;;;21.30;99.90;;;;;;5034622;28;20261;-84
2022/05/22 08:49:39;;;;;;;9.60;3.78;;;21.20;99.90;;;;;;5035047;28;20171;-85
2022/05/22 08:52:54;;;;;;;12.57;2.95;;;21.30;99.90;;;;;;5034796;28;20171;-83
2022/05/22 08:58:56;;;;;;;5.05;2.33;;;21.30;99.90;;;;;;5034355;28;20181;-85
2022/05/22 09:01:12;;;;;;;7.45;2.42;;;21.40;99.90;;;;;;5052748;28;20209;-84
2022/05/22 09:04:01;;;;;;;13.18;3.30;;;21.50;99.90;;;;;;5034298;28;20163;-83
2022/05/22 09:06:33;;;;;;;5.40;2.30;;;21.60;99.90;;;;;;5052053;28;20245;-85
2022/05/22 09:09:00;;;;;;;15.65;2.42;;;21.50;99.90;;;;;;5034026;28;20225;-84
2022/05/22 09:11:41;;;;;;;8.65;2.78;;;21.60;99.90;;;;;;5051594;28;20205;-85
2022/05/22 09:14:23;;;;;;;5.20;2.85;;;21.60;99.90;;;;;;5034493;28;20179;-85
2022/05/22 09:17:02;;;;;;;5.75;2.33;;;21.60;99.90;;;;;;5034256;28;20187;-84
2022/05/22 09:19:36;;;;;;;8.30;2.70;;;21.10;99.90;;;;;;5037808;28;20285;-87
2022/05/22 09:22:04;;;;;;;9.15;2.33;;;21.20;99.90;;;;;;5056818;28;20178;-88
2022/05/22 09:24:53;;;;;;;4.22;2.50;;;21.50;99.90;;;;;;5039062;28;20175;-87
2022/05/22 09:27:40;;;;;;;5.00;2.67;;;21.80;99.90;;;;;;5018656;28;20215;-86
2022/05/22 09:30:32;;;;;;;6.35;2.53;;;22.00;99.90;;;;;;5056123;28;20175;-88
2022/05/22 09:32:58;;;;;;;7.45;2.83;;;22.00;99.90;;;;;;5039305;28;20178;-87
2022/05/22 09:35:49;;;;;;;4.55;2.28;;;22.00;99.90;;;;;;5039083;28;20167;-88
2022/05/22 09:38:33;;;;;;;8.55;3.03;;;22.00;99.90;;;;;;5039585;28;20187;-88
2022/05/22 09:41:08;;;;;;;8.40;4.35;;;22.00;99.90;;;;;;5044836;28;20174;-87
2022/05/22 09:43:46;;;;;;;11.52;2.55;;;22.00;99.90;;;;;;5076748;28;20174;-88
2022/05/22 09:46:44;;;;;;;6.45;2.92;;;21.80;99.90;;;;;;5058679;28;20186;-88
2022/05/22 09:49:57;;;;;;;13.18;2.65;;;21.90;99.90;;;;;;5060063;28;20538;-89
2022/05/22 09:52:51;;;;;;;8.52;2.08;;;22.10;99.90;;;;;;5055741;28;20669;-89
2022/05/22 09:55:19;;;;;;;3.80;1.23;;;22.30;99.90;;;;;;5058675;28;20175;-91
2022/05/22 09:58:16;;;;;;;7.15;2.40;;;22.30;99.90;;;;;;5058221;28;20305;-89
2022/05/22 10:01:13;;;;;;;6.65;2.03;;;22.50;99.90;;;;;;5076805;28;20245;-90
2022/05/22 10:03:57;;;;;;;3.53;1.58;;;22.50;99.90;;;;;;5058083;28;20219;-88
2022/05/22 10:07:00;;;;;;;2.60;1.20;;;22.60;99.90;;;;;;5057916;28;20728;-84
2022/05/22 10:10:10;;;;;;;2.00;1.50;;;22.80;99.90;;;;;;5058084;28;20170;-92
2022/05/22 10:12:47;;;;;;;5.20;1.65;;;22.70;99.90;;;;;;4974920;28;20187;-87
2022/05/22 10:15:28;;;;;;;3.90;1.65;;;22.80;99.90;;;;;;4959065;28;20201;-90
2022/05/22 10:18:08;;;;;;;5.57;1.65;;;22.80;99.90;;;;;;5027559;28;20259;-90
2022/05/22 10:21:08;;;;;;;2.40;2.00;;;22.90;99.90;;;;;;5075797;28;20158;-87
2022/05/22 10:24:02;;;;;;;6.22;1.70;;;22.90;99.90;;;;;;5055781;28;20183;-89
2022/05/22 10:27:11;;;;;;;5.28;1.70;;;23.10;99.90;;;;;;5038990;28;20563;-93
2022/05/22 10:29:52;;;;;;;4.53;1.73;;;23.10;99.90;;;;;;5007107;28;20206;-92
2022/05/22 10:32:27;;;;;;;3.67;1.48;;;23.10;99.90;;;;;;5039254;28;20171;-87
2022/05/22 10:35:07;;;;;;;1.85;1.15;;;22.70;99.90;;;;;;5040195;28;20170;-85
2022/05/22 10:38:13;;;;;;;6.47;1.70;;;22.50;99.90;;;;;;5036731;28;20197;-84
2022/05/22 10:43:34;;;;;;;5.82;2.00;;;22.70;99.90;;;;;;5056255;28;20194;-92
2022/05/22 10:46:00;;;;;;;5.03;1.65;;;22.70;99.90;;;;;;5038867;28;20222;-91
2022/05/22 10:48:27;;;;;;;3.55;2.15;;;22.90;99.90;;;;;;5035655;28;20226;-88
2022/05/22 10:51:02;;;;;;;5.82;1.92;;;23.10;99.90;;;;;;5036446;28;20206;-85
2022/05/22 10:53:39;;;;;;;4.30;1.75;;;23.10;99.90;;;;;;5036703;28;20174;-83
2022/05/22 10:56:22;;;;;;;3.67;1.70;;;23.20;99.90;;;;;;5025287;28;20258;-84
2022/05/22 10:59:07;;;;;;;3.35;1.55;;;23.20;99.90;;;;;;5037018;28;20187;-85
2022/05/22 11:01:35;;;;;;;5.63;2.38;;;23.40;99.90;;;;;;5021957;28;20201;-84
2022/05/22 11:04:18;;;;;;;6.43;1.75;;;23.50;99.90;;;;;;5052194;28;20183;-86
2022/05/22 11:06:56;;;;;;;4.63;1.60;;;23.40;99.90;;;;;;5048707;28;20215;-87
2022/05/22 11:09:47;;;;;;;6.75;1.80;;;23.40;99.90;;;;;;5034578;28;20320;-86
2022/05/22 11:12:22;;;;;;;4.50;2.75;;;23.60;99.90;;;;;;5046640;28;20675;-83
2022/05/22 11:14:48;;;;;;;3.53;1.85;;;23.60;99.90;;;;;;5050162;28;20175;-86
2022/05/22 11:17:21;;;;;;;3.53;2.40;;;23.30;99.90;;;;;;5034718;28;20248;-85
2022/05/22 11:19:55;;;;;;;4.93;1.85;;;23.30;99.90;;;;;;5025432;28;20176;-86
2022/05/22 11:22:58;;;;;;;3.80;1.88;;;23.20;99.90;;;;;;5033649;28;20574;-86
2022/05/22 11:26:02;;;;;;;8.68;2.35;;;23.50;99.90;;;;;;5025862;28;20274;-88
2022/05/22 11:28:40;;;;;;;5.82;1.70;;;23.70;99.90;;;;;;5014491;28;20564;-87
2022/05/22 11:31:41;;;;;;;9.00;2.53;;;23.60;99.90;;;;;;5035131;28;20229;-88
2022/05/22 11:34:44;;;;;;;10.02;3.55;;;23.70;99.90;;;;;;5017760;28;20179;-86
2022/05/22 11:37:40;;;;;;;16.38;3.08;;;23.80;99.90;;;;;;5015681;28;20671;-85
2022/05/22 11:40:25;;;;;;;3.63;1.98;;;23.70;99.90;;;;;;5017135;28;20180;-86
2022/05/22 11:43:21;;;;;;;4.95;1.85;;;23.70;99.90;;;;;;5021800;28;20185;-86
2022/05/22 11:46:05;;;;;;;6.22;2.45;;;23.70;99.90;;;;;;5033754;28;20214;-84
2022/05/22 11:48:46;;;;;;;6.38;2.38;;;23.60;99.90;;;;;;5028697;28;20241;-89
2022/05/22 11:51:33;;;;;;;4.25;2.50;;;23.70;99.90;;;;;;5043028;28;20175;-90
2022/05/22 11:54:13;;;;;;;6.93;2.30;;;23.90;99.90;;;;;;5041230;28;20195;-90
2022/05/22 11:57:03;;;;;;;2.83;1.92;;;23.50;99.90;;;;;;5046129;28;20171;-89
2022/05/22 12:00:14;;;;;;;2.45;1.80;;;23.20;99.90;;;;;;5044290;28;20247;-94
2022/05/22 12:02:58;;;;;;;5.72;2.50;;;23.20;99.90;;;;;;5027559;28;20260;-86
2022/05/22 12:05:32;;;;;;;5.68;2.10;;;23.00;99.90;;;;;;5017367;28;20651;-93
2022/05/22 12:08:06;;;;;;;7.43;2.97;;;23.10;99.90;;;;;;5030426;28;20249;-89
2022/05/22 12:10:35;;;;;;;8.13;2.78;;;23.20;99.90;;;;;;5019917;28;20210;-87
2022/05/22 12:13:19;;;;;;;9.32;2.10;;;23.10;99.90;;;;;;5023857;28;20206;-89
2022/05/22 12:16:04;;;;;;;6.97;1.75;;;23.30;99.90;;;;;;5023625;28;20270;-90
2022/05/22 12:18:58;;;;;;;2.88;1.85;;;23.50;99.90;;;;;;5033489;28;20290;-91
2022/05/22 12:21:32;;;;;;;5.50;2.53;;;23.60;99.90;;;;;;5030809;28;20172;-88
2022/05/22 12:24:07;;;;;;;4.88;2.08;;;23.70;99.90;;;;;;5030720;28;20183;-91
2022/05/22 12:26:34;;;;;;;5.30;1.80;;;23.80;99.90;;;;;;5047964;28;20206;-89
2022/05/22 12:29:11;;;;;;;6.95;2.10;;;23.80;99.90;;;;;;5022466;28;20184;-88
2022/05/22 12:32:07;;;;;;;5.88;1.92;;;23.90;99.90;;;;;;5027000;28;20175;-86
2022/05/22 12:34:36;;;;;;;5.30;2.63;;;24.00;99.90;;;;;;5006161;28;20180;-88
2022/05/22 12:37:05;;;;;;;6.88;2.40;;;24.10;99.90;;;;;;5046766;28;20332;-89
2022/05/22 12:39:37;;;;;;;4.90;2.15;;;24.10;99.90;;;;;;5021619;28;20176;-88
2022/05/22 12:42:17;;;;;;;6.25;2.15;;;23.90;99.90;;;;;;5029160;28;20186;-85
2022/05/22 12:44:44;;;;;;;3.92;2.13;;;23.80;99.90;;;;;;5024462;28;20183;-87
2022/05/22 12:47:15;;;;;;;12.85;2.00;;;23.80;99.90;;;;;;5034841;28;20275;-87
2022/05/22 12:49:53;;;;;;;3.25;1.90;;;23.80;99.90;;;;;;5016675;28;20176;-86
2022/05/22 12:52:27;;;;;;;2.83;1.70;;;24.20;99.90;;;;;;5025621;28;20240;-86
2022/05/22 12:55:29;;;;;;;6.80;2.03;;;23.90;99.90;;;;;;5021655;28;20270;-88
2022/05/22 12:57:57;;;;;;;4.00;1.45;;;24.00;99.90;;;;;;5025607;28;20199;-88
2022/05/22 13:00:42;;;;;;;7.70;2.00;;;24.00;99.90;;;;;;5039212;28;20280;-85
2022/05/22 13:03:09;;;;;;;4.18;1.63;;;23.90;99.90;;;;;;5034373;28;20175;-89
2022/05/22 13:05:38;;;;;;;6.82;2.28;;;23.70;99.90;;;;;;5020992;28;20179;-87
2022/05/22 13:08:32;;;;;;;9.23;1.80;;;23.80;99.90;;;;;;5030670;28;20206;-88
2022/05/22 13:11:00;;;;;;;6.57;1.85;;;24.00;99.90;;;;;;5053211;28;20167;-84
2022/05/22 13:13:33;;;;;;;4.00;1.70;;;24.10;99.90;;;;;;5047564;28;20248;-89
2022/05/22 13:16:07;;;;;;;5.43;1.80;;;24.20;99.90;;;;;;5051906;28;20168;-87
2022/05/22 13:18:48;;;;;;;18.08;2.30;;;24.30;99.90;;;;;;5045988;28;20207;-89
2022/05/22 13:21:37;;;;;;;3.60;1.70;;;24.40;99.90;;;;;;5038730;28;20171;-90